• Join FlightAware (Why Join?)
  • Login
  • US Flag 
05:12AM EST


 

Airport Tracker/Info


-or-


 

Live Flight TrackerFlight Track Log ✈ EJA829P ✈ 10-Jul-2013 ✈ KTEB - KSFM

Flight Track Log - Related Links

Times and Time Zones

All times are in EDT time to prevent confusion due to time zone crossing. See the EJA829P flight status page for this flight to view local times or setup timezone preferences in your user account.

Time Position Orientation Groundspeed Altitude Reporting Facility
EDT Latitude Longitude Course Direction KTS MPH feet Rate Location/Type
08:38PM 40.8333 -74.1000 255° West 172 198 1,600  Level New York TRACON
08:39PM 40.8167 -74.1833 255° West 191 220 2,000 1,950 Climbing New York TRACON
08:40PM 40.8167 -74.2333 270° West 173 199 5,500 2,050 Climbing New York TRACON
08:41PM 40.8667 -74.2667 333° Northwest 252 290 6,100 350 Climbing New York TRACON
08:42PM 40.9500 -74.2167 24° Northeast 286 329 6,200 1,055 Climbing New York TRACON
08:44PM 41.0275 -74.0800 53° Northeast 309 356 9,000 1,018 Climbing Boston Center
08:45PM 41.0747 -73.9847 57° Northeast 299 344 9,000 350 Level Boston Center
08:46PM 41.1197 -73.8950 56° Northeast 299 344 9,700 1,400 Climbing Boston Center
08:47PM 41.1708 -73.7994 55° Northeast 311 358 11,800 2,250 Climbing Boston Center
08:48PM 41.2200 -73.6983 57° Northeast 323 372 14,200 2,500 Climbing Boston Center
08:49PM 41.2733 -73.5972 55° Northeast 329 379 16,800 2,550 Climbing Boston Center
08:50PM 41.3408 -73.5100 44° Northeast 321 369 19,300 2,500 Climbing Boston Center
08:51PM 41.4061 -73.4308 42° Northeast 321 369 21,800 2,500 Climbing Boston Center
08:52PM 41.4875 -73.4183 North 285 328 24,300 2,000 Climbing Boston Center
08:53PM 41.5731 -73.4169 North 285 328 25,800 1,350 Climbing Boston Center
08:54PM 41.6689 -73.4128 North 314 361 27,000 600 Climbing Boston Center
08:55PM 41.7772 -73.4061 North 353 406 27,000  Level Boston Center
08:56PM 41.8942 -73.4022 North 394 453 27,000  Level Boston Center
08:57PM 42.0031 -73.3314 26° Northeast 421 484 27,000 -50 Level Boston Center
08:58PM 42.0936 -73.2094 45° Northeast 420 483 26,900 -500 Descending Boston Center
08:59PM 42.1819 -73.0844 46° Northeast 435 501 26,000 -900 Descending Boston Center
09:00PM 42.2678 -72.9592 47° Northeast 446 513 25,100 -850 Descending Boston Center
09:01PM 42.3517 -72.8419 46° Northeast 463 533 24,300 -850 Descending Boston Center
09:02PM 42.4356 -72.7214 47° Northeast 463 533 23,400 -900 Descending Boston Center
09:03PM 42.5169 -72.5978 48° Northeast 448 516 22,500 -1,100 Descending Boston Center
09:04PM 42.6108 -72.4794 43° Northeast 422 486 21,200 -1,450 Descending Boston Center
09:05PM 42.6881 -72.3667 47° Northeast 406 467 19,600 -1,700 Descending Boston Center
09:06PM 42.7544 -72.2592 50° Northeast 382 440 17,800 -1,600 Descending Boston Center
09:07PM 42.8294 -72.1514 46° Northeast 382 440 16,400 -1,550 Descending Boston Center
09:08PM 42.9000 -72.0489 47° Northeast 371 427 14,700 -1,650 Descending Boston Center
09:09PM 42.9683 -71.9464 48° Northeast 366 421 13,100 -1,650 Descending Boston Center
09:10PM 43.0344 -71.8550 45° Northeast 348 400 11,400 -1,557 Descending Boston Center
09:11PM 43.0925 -71.7664 48° Northeast 330 380 9,700 -1,864 Descending Boston Center
09:12PM 43.1375 -71.6547 61° Northeast 283 326 7,300 -2,132 Descending Boston Center
09:13PM 43.1556 -71.5636 75° East 274 315 5,400 -1,150 Descending Boston Center
09:14PM 43.1797 -71.4492 74° East 274 315 5,000 -500 Descending Boston Center
09:15PM 43.1997 -71.3550 74° East 281 323 4,400 -500 Descending Boston Center
09:16PM 43.2194 -71.2519 75° East 281 323 4,000 -200 Descending Boston Center
09:17PM 43.2414 -71.1433 74° East 281 323 4,000 -250 Level Boston Center
09:18PM 43.2589 -71.0575 74° East 263 303 3,500 -500 Descending Boston Center
09:19PM 43.2767 -70.9742 74° East 222 255 3,000 -250 Descending Boston Center
09:20PM 43.3008 -70.9139 61° Northeast 194 223 3,000 -350 Level Boston Center
09:21PM 43.3292 -70.8503 59° Northeast 183 211 2,300 -700 Descending Boston Center